This is the latest recevied weather packets stored in our database for station/object KB6HGN. If no packets are shown the sender has not sent any weather packets the latest 10 day(s).
| Time | Temp. | Humidity | Pressure | Rain* | Wind** | Luminosity | Snow |
|---|---|---|---|---|---|---|---|
| 1778301605 | 20° C | 63% | 1014.9 hPa | 0 mm | - | 0 W/m² | - |
| 1778301005 | 20.56° C | 61% | 1014.6 hPa | 0 mm | - | 0 W/m² | - |
| 1778299804 | 21.11° C | 58% | 1014.2 hPa | 0 mm | - | 0 W/m² | - |
| 1778299505 | 21.11° C | 58% | 1014.2 hPa | 0 mm | - | 0 W/m² | - |
| 1778298905 | 21.67° C | 57% | 1014.2 hPa | 0 mm | - | 0 W/m² | - |
| 1778298604 | 21.67° C | 57% | 1014.2 hPa | 0 mm | - | 0 W/m² | - |
| 1778296805 | 22.78° C | 54% | 1013.9 hPa | 0 mm | - | 0 W/m² | - |
| 1778295004 | 23.89° C | 48% | 1013.5 hPa | 0 mm | - | 0 W/m² | - |
| 1778294403 | 24.44° C | 47% | 1013.5 hPa | 0 mm | - | 0 W/m² | - |
| 1778290804 | 27.22° C | 38% | 1012.8 hPa | 0 mm | - | 41 W/m² | - |
| 1778289305 | 28.33° C | 35% | 1012.8 hPa | 0 mm | - | 108 W/m² | - |
| 1778284805 | 29.44° C | 33% | 1012.8 hPa | 0 mm | - | 426 W/m² | - |
| 1778277904 | 30° C | 30% | 1013.9 hPa | 0 mm | - | 766 W/m² | - |
| 1778271605 | 27.22° C | 39% | 1014.9 hPa | 0 mm | - | 912 W/m² | - |
| 1778268904 | 26.11° C | 43% | 1015.2 hPa | 0 mm | - | 920 W/m² | - |
| 1778268604 | 26.11° C | 42% | 1015.5 hPa | 0 mm | - | 930 W/m² | - |
| 1778267705 | 25° C | 47% | 1015.9 hPa | 0 mm | - | 923 W/m² | - |
| 1778267104 | 25.56° C | 46% | 1015.9 hPa | 0 mm | - | 917 W/m² | - |
| 1778266504 | 24.44° C | 49% | 1015.9 hPa | 0 mm | - | 909 W/m² | - |
| 1778263504 | 22.78° C | 53% | 1016.6 hPa | 0 mm | - | 873 W/m² | - |
| 1778263205 | 22.78° C | 54% | 1016.6 hPa | 0 mm | - | 864 W/m² | - |
| 1778262604 | 22.78° C | 54% | 1016.5 hPa | 0 mm | - | 845 W/m² | - |
| 1778261104 | 21.11° C | 60% | 1016.6 hPa | 0 mm | - | 791 W/m² | - |
| 1778260805 | 21.11° C | 60% | 1016.6 hPa | 0 mm | - | 779 W/m² | - |
| 1778260204 | 20.56° C | 62% | 1016.5 hPa | 0 mm | - | 755 W/m² | - |
* Rain latest hour (hover to see other rain measurements)
** Current wind speed in m/s (hover to see current wind gust speed)